Time;durP1;ratioP1;P1;durP2;ratioP2;P2;SDS_P1;SDS_P2;PMS_P1;PMS_P2;Temp;Humidity;BMP_temperature;BMP_pressure;BME280_temperature;BME280_humidity;BME280_pressure;Samples;Min_cycle;Max_cycle;Signal;HPM_P1;HPM_P2
2022/05/12 00:02:03;;;;;;;6.50;1.42;;;;;;;16.99;100.00;96143.56;5011435;28;20045;-74
2022/05/12 00:04:30;;;;;;;13.95;1.70;;;;;;;17.02;100.00;96152.97;5014209;28;20033;-76
2022/05/12 00:06:56;;;;;;;5.88;1.40;;;;;;;16.97;100.00;96162.78;5012697;28;20595;-73
2022/05/12 00:09:22;;;;;;;4.93;1.40;;;;;;;16.96;100.00;96166.56;5013980;28;20042;-75
2022/05/12 00:11:48;;;;;;;2.92;1.25;;;;;;;16.91;100.00;96173.97;5013327;28;20033;-73
2022/05/12 00:14:14;;;;;;;3.38;1.15;;;;;;;16.88;100.00;96171.81;5014769;28;20056;-74
2022/05/12 00:16:40;;;;;;;4.75;1.20;;;;;;;16.85;100.00;96167.81;5014639;28;20596;-73
2022/05/12 00:19:05;;;;;;;3.63;1.23;;;;;;;16.82;100.00;96173.84;5014820;28;20049;-74
2022/05/12 00:21:31;;;;;;;5.38;0.88;;;;;;;16.81;100.00;96201.13;5009854;28;20483;-75
2022/05/12 00:23:56;;;;;;;3.45;1.25;;;;;;;16.78;100.00;96204.44;5012578;28;20046;-73
2022/05/12 00:26:33;;;;;;;4.38;1.60;;;;;;;16.68;100.00;96216.16;5012290;28;20095;-74
2022/05/12 00:29:01;;;;;;;5.05;1.88;;;;;;;16.56;100.00;96222.00;5013272;28;20657;-74
2022/05/12 00:31:28;;;;;;;5.25;1.42;;;;;;;16.40;100.00;96245.69;5010548;28;20037;-74
2022/05/12 00:33:54;;;;;;;11.75;1.83;;;;;;;16.28;100.00;96241.84;5016566;28;20362;-75
2022/05/12 00:36:20;;;;;;;13.75;2.10;;;;;;;16.12;100.00;96247.44;5013104;28;20432;-73
2022/05/12 00:38:45;;;;;;;11.02;1.80;;;;;;;16.01;100.00;96248.63;5013799;28;20532;-75
2022/05/12 00:41:11;;;;;;;9.13;2.40;;;;;;;15.87;100.00;96245.84;5012088;28;20501;-73
2022/05/12 00:44:08;;;;;;;8.00;1.88;;;;;;;15.86;100.00;96256.88;5014380;28;20041;-74
2022/05/12 00:46:40;;;;;;;8.57;2.05;;;;;;;15.74;100.00;96257.31;4976972;28;20054;-75
2022/05/12 00:49:09;;;;;;;7.55;1.90;;;;;;;15.74;100.00;96269.97;5012752;28;20665;-74
2022/05/12 00:51:46;;;;;;;8.05;2.33;;;;;;;15.68;100.00;96274.63;5011804;28;20038;-73
2022/05/12 00:54:23;;;;;;;4.88;1.55;;;;;;;15.69;100.00;96272.72;5013217;28;20037;-74
2022/05/12 00:56:50;;;;;;;6.78;2.10;;;;;;;15.64;100.00;96287.09;5012830;28;20034;-75
2022/05/12 00:59:24;;;;;;;8.32;1.92;;;;;;;15.61;100.00;96287.63;5009931;28;20049;-76
2022/05/12 01:01:50;;;;;;;7.90;1.98;;;;;;;15.50;100.00;96296.88;5011413;28;20132;-73
2022/05/12 01:04:18;;;;;;;8.55;1.95;;;;;;;15.32;100.00;96285.69;5013154;28;20095;-73
2022/05/12 01:06:43;;;;;;;5.55;1.88;;;;;;;15.19;100.00;96316.00;5012397;28;20047;-73
2022/05/12 01:09:08;;;;;;;9.00;2.42;;;;;;;15.19;100.00;96296.34;5010380;28;20042;-73
2022/05/12 01:11:34;;;;;;;5.47;1.75;;;;;;;15.20;100.00;96298.75;5012693;28;20042;-73
2022/05/12 01:14:03;;;;;;;8.63;2.20;;;;;;;15.28;100.00;96300.84;5012366;28;20042;-73
2022/05/12 01:16:45;;;;;;;4.95;2.08;;;;;;;15.25;100.00;96297.88;5000914;28;20124;-73
2022/05/12 01:19:18;;;;;;;6.72;1.85;;;;;;;15.25;100.00;96297.88;5011868;28;20362;-75
2022/05/12 01:21:46;;;;;;;5.40;1.67;;;;;;;15.24;100.00;96304.34;5013979;28;20041;-73
2022/05/12 01:24:12;;;;;;;9.07;2.05;;;;;;;15.26;100.00;96316.50;5011830;28;20033;-75
2022/05/12 01:26:38;;;;;;;6.07;1.45;;;;;;;15.24;100.00;96309.75;5011805;28;20048;-74
2022/05/12 01:29:05;;;;;;;7.70;1.80;;;;;;;15.15;100.00;96297.97;5011806;28;20038;-74
2022/05/12 01:31:31;;;;;;;8.18;1.77;;;;;;;15.12;100.00;96318.22;5011602;28;20063;-73
2022/05/12 01:33:56;;;;;;;6.80;1.50;;;;;;;15.05;100.00;96313.13;5011347;28;20041;-75
2022/05/12 01:36:22;;;;;;;6.47;1.58;;;;;;;14.99;100.00;96305.34;5011897;28;20049;-75
2022/05/12 01:38:48;;;;;;;3.80;1.65;;;;;;;14.91;100.00;96316.72;5012240;28;20033;-74
2022/05/12 01:41:15;;;;;;;11.98;1.40;;;;;;;14.81;100.00;96309.53;5008883;28;20125;-73
2022/05/12 01:43:42;;;;;;;7.78;1.33;;;;;;;14.69;100.00;96319.81;5010953;28;20056;-76
2022/05/12 01:46:08;;;;;;;3.38;1.10;;;;;;;14.60;100.00;96326.88;5008006;28;20048;-73
2022/05/12 01:48:33;;;;;;;3.65;1.30;;;;;;;14.54;100.00;96322.56;5010801;28;20036;-73
2022/05/12 01:50:59;;;;;;;6.85;1.08;;;;;;;14.52;100.00;96322.84;5011255;28;20053;-74
2022/05/12 01:53:25;;;;;;;6.22;1.08;;;;;;;14.55;100.00;96321.50;5012287;28;20042;-75
2022/05/12 01:55:51;;;;;;;4.93;0.93;;;;;;;14.57;100.00;96351.66;5008738;28;20608;-74
2022/05/12 01:58:18;;;;;;;2.72;1.08;;;;;;;14.54;100.00;96334.16;5009826;28;20708;-73
2022/05/12 02:00:44;;;;;;;3.03;0.60;;;;;;;14.39;100.00;96345.75;5010664;28;20049;-73
2022/05/12 02:03:09;;;;;;;2.95;0.90;;;;;;;14.25;100.00;96363.59;5009820;28;20075;-73
2022/05/12 02:05:37;;;;;;;4.22;0.88;;;;;;;14.05;100.00;96337.53;5012216;28;20034;-72
2022/05/12 02:08:04;;;;;;;4.85;1.67;;;;;;;14.02;100.00;96364.19;5002548;28;20038;-73
2022/05/12 02:10:33;;;;;;;6.20;1.45;;;;;;;13.93;100.00;96359.38;5009273;28;20065;-75
2022/05/12 02:12:58;;;;;;;3.72;1.00;;;;;;;13.92;100.00;96354.22;5010905;28;20041;-73
2022/05/12 02:15:24;;;;;;;5.30;1.35;;;;;;;13.88;100.00;96369.31;5007061;28;20306;-72
2022/05/12 02:17:51;;;;;;;7.43;1.02;;;;;;;13.82;100.00;96381.16;5010561;28;20691;-75
2022/05/12 02:20:19;;;;;;;4.63;1.13;;;;;;;13.64;100.00;96369.88;5008286;28;20115;-73
2022/05/12 02:22:44;;;;;;;5.22;1.30;;;;;;;13.62;100.00;96393.53;5012341;28;20743;-72
2022/05/12 02:25:11;;;;;;;6.65;1.27;;;;;;;13.55;100.00;96384.94;5008183;28;20345;-74
2022/05/12 02:27:36;;;;;;;4.15;1.13;;;;;;;13.51;100.00;96399.16;5009862;28;20475;-73
2022/05/12 02:30:03;;;;;;;5.57;1.52;;;;;;;13.41;100.00;96397.28;5008082;28;20055;-77
2022/05/12 02:32:29;;;;;;;7.85;1.73;;;;;;;13.32;100.00;96404.28;5009354;28;20200;-73
2022/05/12 02:34:55;;;;;;;4.30;1.40;;;;;;;13.30;100.00;96409.88;5010943;28;20555;-73
2022/05/12 02:37:21;;;;;;;4.75;1.50;;;;;;;13.29;100.00;96400.22;5008343;28;20332;-74
2022/05/12 02:39:47;;;;;;;10.07;1.80;;;;;;;13.32;100.00;96399.69;5009825;28;20072;-74
2022/05/12 02:42:13;;;;;;;11.15;2.40;;;;;;;13.36;100.00;96416.88;5010958;28;20101;-73
2022/05/12 02:44:38;;;;;;;3.22;1.30;;;;;;;13.30;100.00;96423.31;5009531;28;20504;-74
2022/05/12 02:47:07;;;;;;;7.85;1.38;;;;;;;13.15;100.00;96427.84;5009539;28;20034;-74
2022/05/12 02:49:33;;;;;;;6.03;1.50;;;;;;;12.98;100.00;96422.69;5009130;28;20033;-73
2022/05/12 02:51:58;;;;;;;4.57;1.70;;;;;;;12.91;100.00;96428.31;5010818;28;20053;-77
2022/05/12 02:54:24;;;;;;;4.88;1.42;;;;;;;12.81;100.00;96423.72;5010112;28;20041;-72
2022/05/12 02:56:52;;;;;;;5.50;1.52;;;;;;;12.80;100.00;96432.03;5009190;28;20719;-74
2022/05/12 02:59:18;;;;;;;8.45;1.70;;;;;;;12.77;100.00;96446.00;5007810;28;20060;-74
2022/05/12 03:01:44;;;;;;;5.03;1.48;;;;;;;12.75;100.00;96445.44;4991208;28;20041;-75
2022/05/12 03:04:09;;;;;;;6.97;1.80;;;;;;;12.73;100.00;96445.69;5009194;28;20099;-74
2022/05/12 03:06:35;;;;;;;5.63;1.90;;;;;;;12.70;100.00;96448.09;4994405;28;20459;-75
2022/05/12 03:09:01;;;;;;;4.35;1.90;;;;;;;12.66;100.00;96442.44;5010253;28;20488;-74
2022/05/12 03:11:27;;;;;;;6.50;2.08;;;;;;;12.65;100.00;96450.75;5007521;28;20531;-74
2022/05/12 03:13:53;;;;;;;4.78;2.10;;;;;;;12.60;100.00;96442.66;5010199;28;20142;-73
2022/05/12 03:16:20;;;;;;;12.48;2.05;;;;;;;12.57;100.00;96443.22;5007297;28;20038;-74
2022/05/12 03:18:51;;;;;;;4.68;2.00;;;;;;;12.61;100.00;96455.84;5010816;28;20060;-74
2022/05/12 03:21:18;;;;;;;5.97;2.00;;;;;;;12.72;100.00;96460.19;5006629;28;20042;-73
2022/05/12 03:23:44;;;;;;;3.83;1.90;;;;;;;12.81;100.00;96447.06;5008745;28;20501;-75
2022/05/12 03:26:10;;;;;;;6.05;2.22;;;;;;;12.85;100.00;96460.78;5008996;28;20133;-73
2022/05/12 03:28:37;;;;;;;4.00;2.05;;;;;;;12.85;100.00;96453.53;4993074;28;20099;-73
2022/05/12 03:31:03;;;;;;;4.45;2.30;;;;;;;12.88;100.00;96458.38;5006402;28;20054;-75
2022/05/12 03:33:29;;;;;;;5.47;2.33;;;;;;;12.87;100.00;96464.03;5008556;28;20030;-73
2022/05/12 03:35:55;;;;;;;5.45;2.22;;;;;;;12.87;100.00;96462.13;5008480;28;20034;-72
2022/05/12 03:38:21;;;;;;;6.80;2.20;;;;;;;12.86;100.00;96463.22;4990773;28;20030;-73
2022/05/12 03:40:47;;;;;;;7.18;2.00;;;;;;;12.84;100.00;96465.38;5007241;28;20038;-72
2022/05/12 03:44:46;;;;;;;10.88;2.42;;;;;;;12.80;100.00;96470.44;5009407;28;20041;-72
2022/05/12 03:45:58;;;;;;;5.38;2.00;;;;;;;12.81;100.00;96476.59;5006664;28;20104;-74
2022/05/12 03:48:24;;;;;;;6.28;2.35;;;;;;;12.90;100.00;96484.97;5004811;28;20622;-75
2022/05/12 03:50:49;;;;;;;6.28;2.25;;;;;;;12.85;100.00;96496.50;5007826;28;20042;-73
2022/05/12 03:53:14;;;;;;;7.10;1.88;;;;;;;12.79;100.00;96497.56;5007501;28;20402;-73
2022/05/12 03:55:40;;;;;;;10.32;2.70;;;;;;;12.70;100.00;96499.13;4989881;28;20045;-73
2022/05/12 03:58:05;;;;;;;5.80;2.58;;;;;;;12.60;100.00;96510.59;5008319;28;20502;-76
2022/05/12 04:00:32;;;;;;;9.60;2.58;;;;;;;12.53;100.00;96510.84;5008389;28;20431;-72
2022/05/12 04:02:58;;;;;;;5.85;2.40;;;;;;;12.44;100.00;96512.38;5009141;28;20052;-74
2022/05/12 04:05:24;;;;;;;6.63;2.67;;;;;;;12.39;100.00;96517.72;5004955;28;20049;-75
2022/05/12 04:07:51;;;;;;;8.85;2.80;;;;;;;12.31;100.00;96520.88;5006794;28;20128;-74
2022/05/12 04:10:16;;;;;;;8.40;2.65;;;;;;;12.22;100.00;96525.94;5006409;28;20053;-73
2022/05/12 04:12:42;;;;;;;9.93;3.13;;;;;;;12.18;100.00;96530.16;5008866;28;20390;-73
2022/05/12 04:15:08;;;;;;;6.93;3.40;;;;;;;12.16;100.00;96528.81;4991451;28;20033;-74
2022/05/12 04:17:35;;;;;;;9.85;3.35;;;;;;;12.10;100.00;96527.16;5008724;28;20484;-73
2022/05/12 04:20:04;;;;;;;10.65;3.28;;;;;;;12.08;100.00;96537.34;5008950;28;20123;-73
2022/05/12 04:22:30;;;;;;;4.88;3.05;;;;;;;12.08;100.00;96531.97;5007750;28;20065;-75
2022/05/12 04:24:56;;;;;;;6.78;3.60;;;;;;;12.18;100.00;96537.41;5007232;28;20581;-72
2022/05/12 04:27:22;;;;;;;8.70;3.50;;;;;;;12.42;100.00;96544.03;5012999;28;20103;-73
2022/05/12 04:29:47;;;;;;;10.82;3.30;;;;;;;12.62;100.00;96538.00;5013632;28;20563;-73
2022/05/12 04:32:13;;;;;;;8.85;3.60;;;;;;;12.68;100.00;96549.56;5011170;28;20101;-74
2022/05/12 04:37:31;;;;;;;7.95;4.00;;;;;;;12.88;100.00;96562.31;5010713;28;20497;-75
2022/05/12 04:40:22;;;;;;;10.57;5.30;;;;;;;12.86;100.00;96570.63;5013954;28;20511;-74
2022/05/12 04:42:50;;;;;;;11.60;6.50;;;;;;;12.94;100.00;96567.44;5009288;28;20041;-73
2022/05/12 04:45:19;;;;;;;12.98;5.32;;;;;;;12.99;100.00;96564.78;5009459;28;20038;-72
2022/05/12 04:47:46;;;;;;;10.07;4.38;;;;;;;13.08;100.00;96573.97;5010133;28;20034;-74
2022/05/12 04:50:15;;;;;;;11.57;4.20;;;;;;;13.18;100.00;96585.84;5008478;28;20037;-76
2022/05/12 04:52:41;;;;;;;8.70;4.60;;;;;;;13.06;100.00;96584.16;5009503;28;20421;-76
2022/05/12 04:55:07;;;;;;;9.35;4.80;;;;;;;12.89;100.00;96590.78;5009582;28;20965;-72
2022/05/12 04:57:38;;;;;;;10.25;5.28;;;;;;;12.81;100.00;96594.75;5003530;28;20273;-73
2022/05/12 05:00:07;;;;;;;12.55;5.43;;;;;;;12.85;100.00;96601.25;5012374;28;20081;-74
2022/05/12 05:02:33;;;;;;;9.55;5.20;;;;;;;12.97;100.00;96604.53;5010976;28;20477;-74
2022/05/12 05:04:58;;;;;;;10.88;5.30;;;;;;;12.99;100.00;96607.75;5011011;28;20081;-73
2022/05/12 05:07:26;;;;;;;10.98;4.97;;;;;;;12.87;100.00;96615.22;5009467;28;20539;-73
2022/05/12 05:09:52;;;;;;;7.97;4.95;;;;;;;12.76;100.00;96610.81;5010809;28;20042;-75
2022/05/12 05:12:17;;;;;;;9.88;4.63;;;;;;;12.93;100.00;96616.88;5010068;28;20400;-76
2022/05/12 05:14:43;;;;;;;13.20;4.75;;;;;;;13.16;100.00;96622.91;5008814;28;20034;-73
2022/05/12 05:17:09;;;;;;;7.88;4.63;;;;;;;13.16;100.00;96625.59;5012720;28;20042;-72
2022/05/12 05:19:35;;;;;;;11.60;4.85;;;;;;;13.15;100.00;96621.25;5011519;28;20065;-72
2022/05/12 05:22:02;;;;;;;9.27;5.03;;;;;;;13.12;100.00;96630.66;5010234;28;20401;-72
2022/05/12 05:24:27;;;;;;;7.30;4.50;;;;;;;13.02;100.00;96636.78;5012246;28;20065;-75
2022/05/12 05:26:52;;;;;;;10.10;4.60;;;;;;;13.20;100.00;96643.63;5011013;28;20164;-74
2022/05/12 05:29:18;;;;;;;7.13;4.20;;;;;;;13.46;100.00;96646.44;5009446;28;20328;-73
2022/05/12 05:31:44;;;;;;;6.70;3.80;;;;;;;13.71;100.00;96643.06;5009641;28;20077;-72
2022/05/12 05:34:09;;;;;;;9.68;4.25;;;;;;;13.85;100.00;96650.41;5009111;28;20489;-73
2022/05/12 05:36:39;;;;;;;9.10;4.43;;;;;;;13.87;100.00;96650.94;5010277;28;20034;-73
2022/05/12 05:39:06;;;;;;;7.80;3.60;;;;;;;13.65;100.00;96661.06;5008701;28;20100;-73
2022/05/12 05:41:32;;;;;;;10.00;4.38;;;;;;;13.54;100.00;96662.06;5011764;28;20136;-76
2022/05/12 05:43:58;;;;;;;6.95;3.80;;;;;;;13.49;100.00;96670.13;5010345;28;20125;-73
2022/05/12 05:46:24;;;;;;;6.72;3.88;;;;;;;13.36;100.00;96679.47;5009452;28;20041;-74
2022/05/12 05:48:51;;;;;;;10.15;3.78;;;;;;;13.42;100.00;96683.00;5010596;28;20501;-72
2022/05/12 05:54:02;;;;;;;7.28;4.10;;;;;;;13.27;100.00;96689.09;4982225;28;20060;-76
2022/05/12 05:56:28;;;;;;;6.38;3.70;;;;;;;13.23;100.00;96687.97;5008928;28;20037;-74
2022/05/12 05:58:54;;;;;;;8.07;4.63;;;;;;;12.99;100.00;96696.38;4993793;28;20041;-75
2022/05/12 06:01:20;;;;;;;8.18;3.90;;;;;;;12.86;100.00;96699.53;5011172;28;20515;-73
2022/05/12 06:03:46;;;;;;;11.18;3.65;;;;;;;12.84;100.00;96701.69;5011817;28;20437;-72
2022/05/12 06:06:11;;;;;;;6.85;3.90;;;;;;;12.80;100.00;96705.91;5008842;28;20208;-73
2022/05/12 06:08:38;;;;;;;10.80;4.22;;;;;;;12.93;100.00;96707.38;4996539;28;20095;-75
2022/05/12 06:11:04;;;;;;;6.95;3.50;;;;;;;13.14;100.00;96711.00;5007150;28;20037;-72
2022/05/12 06:13:34;;;;;;;8.75;3.92;;;;;;;13.17;100.00;96716.69;5011714;28;20042;-75
2022/05/12 06:16:01;;;;;;;7.68;3.20;;;;;;;13.20;100.00;96720.75;5011001;28;20049;-73
2022/05/12 06:18:27;;;;;;;9.93;3.60;;;;;;;13.27;100.00;96729.41;5011392;28;20308;-73
2022/05/12 06:20:53;;;;;;;12.07;3.95;;;;;;;13.35;100.00;96726.22;5008656;28;20294;-74
2022/05/12 06:23:18;;;;;;;8.35;4.20;;;;;;;13.54;100.00;96729.28;5011922;28;20111;-74
2022/05/12 06:25:44;;;;;;;7.85;3.95;;;;;;;13.65;100.00;96731.78;5008806;28;20030;-73
2022/05/12 06:28:10;;;;;;;5.28;3.58;;;;;;;13.93;100.00;96743.22;4998124;28;20050;-71
2022/05/12 06:30:36;;;;;;;11.57;4.55;;;;;;;14.18;100.00;96742.50;5005522;28;25299;-72
2022/05/12 06:33:03;;;;;;;8.02;4.10;;;;;;;13.97;100.00;96738.91;5009914;28;20387;-72
2022/05/12 06:35:29;;;;;;;9.55;4.10;;;;;;;14.01;100.00;96734.66;5009722;28;20034;-72
2022/05/12 06:37:55;;;;;;;7.47;4.35;;;;;;;14.23;100.00;96745.19;5007623;28;20048;-71
2022/05/12 06:40:21;;;;;;;8.50;4.50;;;;;;;14.15;100.00;96746.50;5007491;28;20084;-76
2022/05/12 06:42:48;;;;;;;7.35;4.35;;;;;;;14.00;100.00;96743.75;5008822;28;20041;-73
2022/05/12 06:45:15;;;;;;;7.90;4.15;;;;;;;13.71;100.00;96759.53;5006703;28;20616;-71
2022/05/12 06:47:51;;;;;;;11.23;4.80;;;;;;;13.50;100.00;96761.28;5009205;28;20041;-74
2022/05/12 06:50:21;;;;;;;7.72;4.53;;;;;;;13.41;100.00;96757.44;5006977;28;20041;-75
2022/05/12 06:52:47;;;;;;;8.45;4.30;;;;;;;13.35;100.00;96756.59;5006221;28;20034;-72
2022/05/12 06:55:14;;;;;;;9.30;4.70;;;;;;;13.47;100.00;96767.19;5006762;28;20049;-74
2022/05/12 06:57:39;;;;;;;7.82;4.05;;;;;;;13.63;100.00;96766.19;5009854;28;20033;-75
2022/05/12 07:00:06;;;;;;;9.93;4.55;;;;;;;13.70;100.00;96773.22;5011040;28;20057;-72
2022/05/12 07:02:32;;;;;;;8.98;3.95;;;;;;;13.90;100.00;96765.25;5009057;28;20104;-72
2022/05/12 07:04:57;;;;;;;8.98;3.58;;;;;;;14.30;100.00;96763.78;5009106;28;20128;-73
2022/05/12 07:07:23;;;;;;;5.60;3.30;;;;;;;14.57;100.00;96763.63;5006298;28;20527;-73
2022/05/12 07:09:52;;;;;;;6.63;2.83;;;;;;;14.73;100.00;96767.97;5011890;28;20069;-72
2022/05/12 07:12:19;;;;;;;10.88;3.28;;;;;;;15.00;100.00;96765.84;5010473;28;20079;-73
2022/05/12 07:14:45;;;;;;;10.18;2.90;;;;;;;15.24;100.00;96771.50;5010972;28;20478;-72
2022/05/12 07:17:10;;;;;;;9.93;2.95;;;;;;;14.88;100.00;96770.69;5010951;28;20122;-72
2022/05/12 07:19:36;;;;;;;6.90;2.70;;;;;;;14.46;100.00;96776.25;5009055;28;20069;-77
2022/05/12 07:27:31;;;;;;;7.55;3.10;;;;;;;14.12;100.00;96778.53;5009453;28;20069;-75
2022/05/12 07:29:56;;;;;;;5.78;2.50;;;;;;;13.85;100.00;96782.19;5009138;28;20145;-72
2022/05/12 07:32:22;;;;;;;9.23;2.60;;;;;;;13.78;100.00;96776.22;5005808;28;20053;-73
2022/05/12 07:34:47;;;;;;;7.32;2.25;;;;;;;13.86;100.00;96783.81;5010802;28;20360;-72
2022/05/12 07:37:14;;;;;;;6.15;2.38;;;;;;;14.02;100.00;96784.69;5010683;28;20056;-72
2022/05/12 07:39:39;;;;;;;5.35;2.25;;;;;;;14.09;100.00;96785.25;5008614;28;20033;-73
2022/05/12 07:42:05;;;;;;;13.05;2.42;;;;;;;13.98;100.00;96788.97;5006682;28;20119;-72
2022/05/12 07:44:34;;;;;;;8.10;2.25;;;;;;;13.96;100.00;96776.84;5011735;28;20128;-74
2022/05/12 07:47:03;;;;;;;7.85;2.10;;;;;;;14.37;100.00;96793.97;4991181;28;20045;-73
2022/05/12 07:49:32;;;;;;;7.15;1.98;;;;;;;14.55;100.00;96796.19;5008877;28;20073;-72
2022/05/12 07:51:59;;;;;;;7.18;2.03;;;;;;;14.62;100.00;96799.44;5008863;28;20111;-76
2022/05/12 07:54:25;;;;;;;7.65;2.40;;;;;;;14.81;100.00;96797.06;5009751;28;20198;-73
2022/05/12 07:56:51;;;;;;;8.90;1.92;;;;;;;14.91;100.00;96798.97;5006696;28;20125;-72
2022/05/12 07:59:16;;;;;;;7.53;1.95;;;;;;;14.72;100.00;96794.09;5010332;28;20370;-74
2022/05/12 08:01:42;;;;;;;7.05;2.00;;;;;;;14.79;100.00;96801.94;5012467;28;20071;-73
2022/05/12 08:04:07;;;;;;;7.20;2.10;;;;;;;15.02;100.00;96806.00;5012389;28;20042;-72
2022/05/12 08:06:33;;;;;;;7.50;2.50;;;;;;;15.11;100.00;96808.97;5011872;28;20045;-73
2022/05/12 08:08:59;;;;;;;5.07;1.95;;;;;;;15.22;100.00;96810.59;5014412;28;20041;-74
2022/05/12 08:11:24;;;;;;;4.13;1.55;;;;;;;15.07;100.00;96821.34;5010977;28;20604;-73
2022/05/12 08:13:50;;;;;;;4.72;1.67;;;;;;;14.95;98.97;96819.75;5014829;28;20067;-76
2022/05/12 08:16:18;;;;;;;4.07;1.42;;;;;;;15.05;97.47;96824.31;5010868;28;20046;-72
2022/05/12 08:18:46;;;;;;;5.00;1.45;;;;;;;15.25;96.56;96818.13;5012994;28;20076;-73
2022/05/12 08:21:13;;;;;;;7.82;1.70;;;;;;;15.61;96.47;96824.34;5011475;28;20088;-73
2022/05/12 08:23:39;;;;;;;6.38;2.03;;;;;;;15.68;95.23;96830.28;5013180;28;20049;-74
2022/05/12 08:26:05;;;;;;;5.95;1.67;;;;;;;15.56;93.35;96835.09;5011841;28;20038;-73
2022/05/12 08:28:31;;;;;;;3.80;1.55;;;;;;;15.68;95.39;96832.97;5011865;28;20057;-73
2022/05/12 08:30:56;;;;;;;9.68;2.85;;;;;;;15.87;94.69;96831.34;5009891;28;20061;-72
2022/05/12 08:33:23;;;;;;;7.93;1.75;;;;;;;15.92;95.90;96829.69;4997662;28;20048;-72
2022/05/12 08:35:50;;;;;;;8.23;1.90;;;;;;;15.55;94.53;96836.19;5011083;28;20114;-73
2022/05/12 08:38:17;;;;;;;5.82;1.50;;;;;;;15.73;93.26;96851.06;4993097;28;20858;-76
2022/05/12 08:41:01;;;;;;;6.97;2.05;;;;;;;15.80;92.55;96841.59;5012243;28;20539;-73
2022/05/12 08:43:44;;;;;;;7.95;1.85;;;;;;;16.12;93.64;96837.75;5011431;28;20376;-73
2022/05/12 08:46:21;;;;;;;6.03;1.80;;;;;;;16.72;88.83;96846.72;5000871;28;20055;-72
2022/05/12 08:48:49;;;;;;;4.55;1.63;;;;;;;16.87;89.16;96854.75;5009618;28;20421;-76
2022/05/12 08:51:17;;;;;;;8.23;1.60;;;;;;;16.87;88.78;96854.75;5012395;28;20044;-73
2022/05/12 08:53:56;;;;;;;4.88;1.55;;;;;;;16.81;88.80;96853.19;5013159;28;20037;-72
2022/05/12 08:56:23;;;;;;;5.97;1.50;;;;;;;16.74;88.61;96860.78;5011375;28;20571;-74
2022/05/12 08:58:51;;;;;;;6.18;1.83;;;;;;;16.53;87.15;96864.63;5009848;28;20033;-74
2022/05/12 09:01:58;;;;;;;5.45;1.50;;;;;;;16.29;87.14;96850.94;5010306;28;20045;-72
2022/05/12 09:04:30;;;;;;;3.95;1.92;;;;;;;16.45;90.02;96852.50;4966245;28;20053;-73
2022/05/12 09:07:01;;;;;;;5.13;1.60;;;;;;;16.49;90.89;96850.84;5013692;28;20066;-72
2022/05/12 09:09:42;;;;;;;7.75;2.40;;;;;;;16.13;90.47;96853.69;5010876;28;20042;-72
2022/05/12 09:12:23;;;;;;;5.30;1.83;;;;;;;16.27;90.51;96850.41;5012677;28;20077;-74
2022/05/12 09:15:33;;;;;;;7.50;2.03;;;;;;;16.51;86.79;96856.00;5013594;28;20087;-72
2022/05/12 09:18:02;;;;;;;5.85;2.00;;;;;;;16.89;84.64;96849.88;4936809;29;21015;-72
2022/05/12 09:20:31;;;;;;;8.10;1.73;;;;;;;16.68;87.97;96849.16;4937683;29;20047;-72
2022/05/12 09:23:00;;;;;;;6.07;2.00;;;;;;;16.58;90.30;96849.22;4975072;28;20064;-72
2022/05/12 09:25:36;;;;;;;7.47;2.08;;;;;;;16.66;86.99;96867.53;5010881;28;20041;-73
2022/05/12 09:28:27;;;;;;;5.43;1.80;;;;;;;17.15;90.53;96855.94;5007170;28;20348;-73
2022/05/12 09:31:17;;;;;;;10.77;1.98;;;;;;;17.43;85.82;96857.09;4999393;28;20046;-73
2022/05/12 09:33:45;;;;;;;6.25;2.20;;;;;;;17.67;85.50;96845.53;5009633;28;20100;-73
2022/05/12 09:36:29;;;;;;;6.47;1.70;;;;;;;17.75;92.15;96837.66;5012118;28;20128;-73
2022/05/12 09:38:56;;;;;;;8.27;2.00;;;;;;;18.00;80.30;96833.06;5012452;28;20092;-72
2022/05/12 09:41:31;;;;;;;8.85;1.80;;;;;;;17.67;85.26;96840.94;5009169;28;21489;-75
2022/05/12 09:43:57;;;;;;;3.65;1.58;;;;;;;17.50;81.00;96837.81;5010926;28;20136;-73
2022/05/12 09:46:31;;;;;;;7.05;2.40;;;;;;;17.34;78.25;96839.84;5008429;28;20168;-73
2022/05/12 09:49:18;;;;;;;11.80;1.98;;;;;;;17.31;86.10;96835.00;5010817;28;20099;-72
2022/05/12 09:51:43;;;;;;;5.43;2.25;;;;;;;17.80;83.88;96824.03;5010328;28;20041;-73
2022/05/12 09:54:25;;;;;;;6.65;2.25;;;;;;;18.15;79.21;96829.41;5010941;28;20041;-73
2022/05/12 09:56:59;;;;;;;7.47;2.17;;;;;;;18.59;76.22;96829.94;5009764;28;20387;-72
2022/05/12 09:59:28;;;;;;;9.32;2.08;;;;;;;18.90;84.99;96821.41;5011079;28;20096;-74
2022/05/12 10:02:05;;;;;;;4.68;2.20;;;;;;;19.11;78.78;96820.03;4991925;28;20131;-72
2022/05/12 10:10:21;;;;;;;8.73;1.60;;;;;;;18.89;69.05;96817.09;5011019;28;20049;-72
2022/05/12 10:12:54;;;;;;;4.65;1.70;;;;;;;18.85;63.15;96819.59;5011167;28;20041;-72
2022/05/12 10:15:27;;;;;;;7.50;1.80;;;;;;;18.93;69.62;96815.44;5011003;28;20527;-72
2022/05/12 10:18:13;;;;;;;23.95;2.05;;;;;;;18.89;75.41;96808.97;5011594;28;20042;-72
2022/05/12 10:20:43;;;;;;;7.10;1.90;;;;;;;18.21;76.29;96806.56;5008079;28;20068;-73
2022/05/12 10:23:29;;;;;;;7.37;2.20;;;;;;;18.65;78.86;96809.00;5007330;28;20038;-73
2022/05/12 10:26:04;;;;;;;7.90;2.10;;;;;;;19.09;72.31;96810.59;5010345;28;20153;-72
2022/05/12 10:29:05;;;;;;;5.53;1.98;;;;;;;19.52;72.42;96808.53;5000845;28;20395;-73
2022/05/12 10:31:46;;;;;;;6.25;1.88;;;;;;;20.09;67.56;96811.91;5007474;28;20064;-72
2022/05/12 10:34:49;;;;;;;2.92;1.27;;;;;;;20.42;64.50;96806.38;5010119;28;20052;-75
2022/05/12 10:37:33;;;;;;;8.57;2.30;;;;;;;20.61;58.97;96811.69;5009340;28;20037;-72
2022/05/12 10:40:25;;;;;;;7.93;2.03;;;;;;;21.17;60.05;96814.00;5011757;28;20049;-72
2022/05/12 10:43:02;;;;;;;7.13;1.90;;;;;;;21.28;69.45;96811.88;5011044;28;20096;-74
2022/05/12 10:45:46;;;;;;;5.55;1.85;;;;;;;21.55;56.46;96819.09;4300999;28;10000859;-73
2022/05/12 10:48:33;;;;;;;6.65;2.10;;;;;;;20.90;58.54;96808.63;5010192;28;20052;-72
2022/05/12 10:51:02;;;;;;;4.05;1.70;;;;;;;20.72;56.78;96807.69;5010630;28;20571;-72
2022/05/12 10:53:32;;;;;;;7.03;2.10;;;;;;;21.42;52.41;96810.69;5011497;28;20045;-75
2022/05/12 10:56:15;;;;;;;7.15;2.10;;;;;;;21.04;55.06;96806.69;5008954;28;20056;-72
2022/05/12 10:59:22;;;;;;;5.90;1.83;;;;;;;21.53;49.45;96803.06;5008212;28;20077;-73
2022/05/12 11:02:01;;;;;;;5.00;1.80;;;;;;;22.79;43.48;96795.28;4986481;28;20449;-74
2022/05/12 11:04:36;;;;;;;5.70;1.85;;;;;;;23.63;40.85;96799.50;4988775;28;20042;-72
2022/05/12 11:07:39;;;;;;;6.53;1.58;;;;;;;24.03;39.02;96779.31;4988525;28;20196;-74
2022/05/12 11:10:18;;;;;;;6.32;1.70;;;;;;;25.55;37.72;96778.19;4981456;28;20053;-74
2022/05/12 11:12:49;;;;;;;7.55;1.80;;;;;;;25.81;35.80;96786.97;4985313;28;20576;-74
2022/05/12 11:15:54;;;;;;;9.07;1.92;;;;;;;26.83;37.67;96768.72;4987323;28;20042;-74
2022/05/12 11:18:30;;;;;;;6.40;1.60;;;;;;;27.84;30.98;96770.44;4949113;28;20049;-74
2022/05/12 11:21:04;;;;;;;3.75;1.65;;;;;;;26.32;34.36;96773.00;4985589;28;20045;-73
2022/05/12 11:24:00;;;;;;;4.25;1.80;;;;;;;29.60;27.20;96765.91;4987405;28;20077;-75
2022/05/12 11:27:04;;;;;;;4.50;1.58;;;;;;;31.25;25.47;96767.41;4985983;28;20069;-73
2022/05/12 11:29:43;;;;;;;7.13;1.70;;;;;;;26.83;30.91;96773.41;4970423;28;20188;-73
2022/05/12 11:32:26;;;;;;;4.35;1.45;;;;;;;27.80;30.49;96775.06;4987168;28;20292;-73
2022/05/12 11:34:56;;;;;;;3.53;1.73;;;;;;;31.73;25.46;96759.28;4997270;28;20077;-73
2022/05/12 11:37:38;;;;;;;4.72;1.45;;;;;;;31.80;24.32;96766.88;4993450;28;20100;-74
2022/05/12 11:40:13;;;;;;;3.45;1.60;;;;;;;33.74;22.53;96765.84;4991928;28;20568;-74
2022/05/12 11:45:48;;;;;;;5.88;1.63;;;;;;;25.73;32.33;96774.16;4991253;28;20096;-75
2022/05/12 11:48:58;;;;;;;6.55;1.75;;;;;;;30.96;26.63;96768.97;4990237;28;20045;-73
2022/05/12 11:51:32;;;;;;;4.32;1.70;;;;;;;27.93;30.36;96768.31;4911459;29;20132;-74
2022/05/12 11:54:07;;;;;;;9.32;1.55;;;;;;;26.34;33.57;96771.50;4987692;28;20074;-73
2022/05/12 11:56:42;;;;;;;10.13;2.00;;;;;;;24.89;35.25;96778.84;4990139;28;20042;-74
2022/05/12 11:59:20;;;;;;;4.88;1.48;;;;;;;27.45;31.02;96769.38;4990525;28;20068;-75
2022/05/12 12:02:15;;;;;;;4.88;1.75;;;;;;;32.09;26.72;96757.69;5011092;28;20041;-74